Time;durP1;ratioP1;P1;durP2;ratioP2;P2;SDS_P1;SDS_P2;PMS_P1;PMS_P2;Temp;Humidity;BMP_temperature;BMP_pressure;BME280_temperature;BME280_humidity;BME280_pressure;Samples;Min_cycle;Max_cycle;Signal;HPM_P1;HPM_P2
2021/04/25 00:02:12;;;;;;;13.73;9.67;;;;;;;4.75;76.96;99647.56;5079888;28;20240;-79
2021/04/25 00:05:01;;;;;;;11.97;9.60;;;;;;;4.72;77.58;99655.88;5085914;28;20228;-81
2021/04/25 00:07:49;;;;;;;12.80;8.97;;;;;;;4.66;78.26;99661.09;5100772;28;20227;-80
2021/04/25 00:10:42;;;;;;;12.70;9.57;;;;;;;4.57;78.24;99644.44;5081345;28;20407;-79
2021/04/25 00:13:29;;;;;;;15.13;10.23;;;;;;;4.54;78.61;99649.25;5068106;28;20228;-80
2021/04/25 00:16:28;;;;;;;11.57;9.27;;;;;;;4.50;78.43;99643.50;5085116;28;20232;-80
2021/04/25 00:19:24;;;;;;;13.27;10.00;;;;;;;4.49;78.73;99638.34;5085971;28;20310;-79
2021/04/25 00:22:06;;;;;;;14.97;9.50;;;;;;;4.37;78.83;99630.84;5084409;28;20232;-80
2021/04/25 00:24:59;;;;;;;13.73;9.43;;;;;;;4.40;78.67;99627.00;5074145;28;20648;-78
2021/04/25 00:27:48;;;;;;;16.27;10.40;;;;;;;4.32;78.85;99624.44;5080404;28;20515;-80
2021/04/25 00:30:54;;;;;;;11.70;9.83;;;;;;;4.35;79.16;99635.50;5066206;28;20232;-79
2021/04/25 00:33:47;;;;;;;12.80;9.60;;;;;;;4.27;79.40;99632.09;5080875;28;20229;-79
2021/04/25 00:36:41;;;;;;;13.57;9.63;;;;;;;4.19;79.55;99626.88;5101004;28;20228;-80
2021/04/25 00:39:35;;;;;;;16.27;10.03;;;;;;;4.10;79.55;99626.13;5095476;28;20598;-80
2021/04/25 00:42:28;;;;;;;12.00;9.27;;;;;;;4.00;79.71;99622.88;5080635;28;20224;-79
2021/04/25 00:45:21;;;;;;;13.47;9.87;;;;;;;3.94;79.86;99621.75;5077734;28;20642;-80
2021/04/25 00:48:09;;;;;;;14.13;9.63;;;;;;;3.89;80.01;99626.75;5086194;28;20228;-81
2021/04/25 00:51:03;;;;;;;13.07;10.13;;;;;;;3.74;80.55;99603.84;5083481;28;20235;-81
2021/04/25 00:53:56;;;;;;;13.43;9.97;;;;;;;3.77;80.93;99616.75;5080835;28;20232;-80
2021/04/25 00:56:49;;;;;;;13.47;10.27;;;;;;;3.76;81.24;99625.69;5079688;28;20237;-81
2021/04/25 00:59:44;;;;;;;12.17;10.13;;;;;;;3.70;81.43;99627.22;5086821;28;20315;-81
2021/04/25 01:02:40;;;;;;;13.37;10.73;;;;;;;3.64;81.46;99619.97;5087100;28;20250;-81
2021/04/25 01:05:26;;;;;;;15.97;10.27;;;;;;;3.60;81.23;99623.97;5085800;28;20236;-80
2021/04/25 01:08:26;;;;;;;13.20;10.13;;;;;;;3.58;81.42;99639.22;5086346;28;20527;-80
2021/04/25 01:11:23;;;;;;;13.03;10.63;;;;;;;3.51;81.21;99617.91;5085690;28;20228;-81
2021/04/25 01:14:15;;;;;;;13.77;11.40;;;;;;;3.57;81.15;99629.63;5085161;28;20305;-81
2021/04/25 01:17:04;;;;;;;13.23;10.73;;;;;;;3.51;81.40;99628.50;5072021;28;20224;-81
2021/04/25 01:20:03;;;;;;;13.33;10.27;;;;;;;3.54;81.25;99632.63;5086925;28;20231;-81
2021/04/25 01:22:56;;;;;;;13.20;11.07;;;;;;;3.51;81.63;99633.78;5070970;28;20315;-81
2021/04/25 01:25:51;;;;;;;16.27;11.93;;;;;;;3.42;82.35;99628.72;5065465;28;20528;-83
2021/04/25 01:28:48;;;;;;;13.10;11.43;;;;;;;3.40;82.08;99623.59;5065908;28;20228;-83
2021/04/25 01:31:43;;;;;;;15.50;11.63;;;;;;;3.46;82.65;99636.13;5099837;28;20232;-81
2021/04/25 01:34:39;;;;;;;14.33;12.03;;;;;;;3.39;82.12;99618.47;5099951;28;20234;-81
2021/04/25 01:37:27;;;;;;;15.90;11.93;;;;;;;3.45;82.18;99625.72;5101327;28;20247;-81
2021/04/25 01:40:17;;;;;;;14.23;11.53;;;;;;;3.40;82.01;99622.78;5099296;28;20224;-81
2021/04/25 01:43:10;;;;;;;14.13;11.27;;;;;;;3.38;82.42;99630.88;5086026;28;20235;-81
2021/04/25 01:45:59;;;;;;;13.83;11.70;;;;;;;3.33;82.11;99613.88;5080381;28;20232;-81
2021/04/25 01:48:50;;;;;;;14.07;11.40;;;;;;;3.36;82.19;99624.94;5065828;28;20236;-81
2021/04/25 01:51:42;;;;;;;15.67;11.60;;;;;;;3.33;82.09;99614.69;5088497;28;20236;-80
2021/04/25 01:54:34;;;;;;;15.83;11.40;;;;;;;3.29;82.19;99620.50;5079603;28;20782;-80
2021/04/25 01:57:28;;;;;;;13.70;11.13;;;;;;;3.23;82.38;99619.38;5080276;28;20235;-81
2021/04/25 02:00:30;;;;;;;16.83;12.53;;;;;;;3.26;82.52;99618.22;5080319;28;20236;-81
2021/04/25 02:03:17;;;;;;;12.87;11.17;;;;;;;3.26;82.40;99615.56;5070840;28;20232;-80
2021/04/25 02:06:06;;;;;;;16.07;12.07;;;;;;;3.27;82.53;99618.03;5100241;28;20259;-80
2021/04/25 02:08:59;;;;;;;17.10;12.07;;;;;;;3.26;82.73;99610.28;5071763;28;20263;-81
2021/04/25 02:11:53;;;;;;;15.60;11.90;;;;;;;3.25;82.93;99612.09;5066120;28;20256;-80
2021/04/25 02:14:47;;;;;;;16.23;12.70;;;;;;;3.25;82.69;99609.44;5050713;28;20232;-79
2021/04/25 02:17:41;;;;;;;14.27;11.83;;;;;;;3.27;82.19;99620.66;5098591;28;20216;-80
2021/04/25 02:20:36;;;;;;;15.63;11.97;;;;;;;3.32;82.75;99615.69;5084895;28;20227;-80
2021/04/25 02:23:26;;;;;;;16.37;11.83;;;;;;;3.30;82.43;99617.69;5086811;28;20234;-81
2021/04/25 02:26:18;;;;;;;14.70;11.67;;;;;;;3.25;82.03;99608.63;5095194;28;20282;-80
2021/04/25 02:29:13;;;;;;;14.03;11.17;;;;;;;3.31;82.23;99615.88;5065826;28;20584;-80
2021/04/25 02:32:05;;;;;;;14.07;12.00;;;;;;;3.29;82.32;99609.91;5065287;28;20228;-81
2021/04/25 02:34:51;;;;;;;13.67;11.77;;;;;;;3.27;82.68;99603.97;5079066;28;20220;-81
2021/04/25 02:37:35;;;;;;;16.10;12.13;;;;;;;3.38;82.51;99607.06;5080609;28;20504;-81
2021/04/25 02:40:20;;;;;;;15.90;11.67;;;;;;;3.33;82.21;99617.34;5085087;28;20207;-81
2021/04/25 02:43:12;;;;;;;15.37;10.60;;;;;;;3.32;82.65;99599.78;5082305;28;20228;-81
2021/04/25 02:46:08;;;;;;;15.10;11.13;;;;;;;3.32;82.39;99617.50;5066837;28;20262;-81
2021/04/25 02:49:00;;;;;;;13.93;11.23;;;;;;;3.28;81.79;99610.91;5099864;28;20354;-81
2021/04/25 02:51:52;;;;;;;13.90;11.37;;;;;;;3.28;81.84;99608.25;5086590;28;20314;-80
2021/04/25 02:54:45;;;;;;;13.23;11.23;;;;;;;3.25;82.19;99617.38;5089867;28;20228;-80
2021/04/25 02:57:38;;;;;;;15.27;11.27;;;;;;;3.15;82.33;99614.13;5086393;28;20225;-81
2021/04/25 03:00:34;;;;;;;15.37;11.00;;;;;;;3.13;82.60;99612.66;5069193;28;20228;-81
2021/04/25 03:03:25;;;;;;;12.90;11.13;;;;;;;3.10;83.11;99619.94;5089294;28;20227;-81
2021/04/25 03:06:19;;;;;;;13.60;11.33;;;;;;;3.09;83.22;99615.63;5075306;28;20295;-80
2021/04/25 03:09:10;;;;;;;15.93;11.47;;;;;;;3.04;83.00;99594.13;5082401;28;20292;-81
2021/04/25 03:12:06;;;;;;;16.23;10.97;;;;;;;3.11;82.81;99599.59;5075310;28;20216;-81
2021/04/25 03:14:59;;;;;;;12.60;10.47;;;;;;;3.08;83.01;99608.69;5103731;28;20244;-81
2021/04/25 03:17:55;;;;;;;11.70;10.30;;;;;;;3.02;82.68;99595.31;5102918;28;20216;-81
2021/04/25 03:20:47;;;;;;;14.00;10.83;;;;;;;3.11;82.23;99610.16;5101933;28;20246;-81
2021/04/25 03:23:37;;;;;;;13.17;10.93;;;;;;;3.00;82.50;99608.72;5073578;28;20566;-81
2021/04/25 03:26:26;;;;;;;12.07;10.57;;;;;;;2.87;82.78;99597.03;5103248;28;20224;-80
2021/04/25 03:29:20;;;;;;;13.40;10.97;;;;;;;2.90;83.18;99600.16;5068178;28;20276;-81
2021/04/25 03:32:25;;;;;;;12.90;10.50;;;;;;;2.91;83.10;99593.03;5087090;28;20240;-81
2021/04/25 03:35:20;;;;;;;12.77;10.60;;;;;;;2.93;82.94;99602.47;5102471;28;20569;-82
2021/04/25 03:38:14;;;;;;;14.00;10.77;;;;;;;2.86;82.99;99600.66;5092066;28;20236;-80
2021/04/25 03:41:06;;;;;;;12.27;10.97;;;;;;;2.87;83.16;99605.78;5070319;28;20723;-80
2021/04/25 03:43:58;;;;;;;12.87;10.83;;;;;;;2.80;83.43;99598.72;5100810;28;20224;-81
2021/04/25 03:46:49;;;;;;;13.07;10.57;;;;;;;2.87;83.34;99611.09;5072110;28;20573;-81
2021/04/25 03:49:35;;;;;;;13.07;11.07;;;;;;;2.88;83.32;99602.16;5083111;28;20228;-81
2021/04/25 03:52:25;;;;;;;15.17;10.47;;;;;;;2.90;82.95;99609.91;5082995;28;20255;-81
2021/04/25 03:55:13;;;;;;;13.90;10.97;;;;;;;2.99;83.10;99608.88;5068026;28;20763;-81
2021/04/25 03:58:07;;;;;;;12.13;10.70;;;;;;;3.07;82.30;99616.81;5069065;28;20267;-81
2021/04/25 04:00:51;;;;;;;14.07;11.30;;;;;;;3.08;81.96;99607.84;5066807;28;20292;-81
2021/04/25 04:03:38;;;;;;;14.43;10.43;;;;;;;3.15;82.05;99613.28;5067847;28;20250;-81
2021/04/25 04:06:29;;;;;;;11.67;9.77;;;;;;;3.25;81.11;99609.44;5082330;28;20263;-80
2021/04/25 04:09:25;;;;;;;12.07;9.90;;;;;;;3.28;80.89;99617.03;5082996;28;20316;-81
2021/04/25 04:12:11;;;;;;;16.00;10.47;;;;;;;3.31;81.20;99611.38;5082790;28;20263;-81
2021/04/25 04:15:04;;;;;;;12.77;10.20;;;;;;;3.38;81.38;99609.69;5067642;28;20228;-82
2021/04/25 04:17:53;;;;;;;16.07;10.57;;;;;;;3.42;81.09;99603.06;5082847;28;20225;-81
2021/04/25 04:20:44;;;;;;;14.60;11.57;;;;;;;3.53;80.15;99613.25;5051785;28;20699;-81
2021/04/25 04:23:36;;;;;;;13.83;10.77;;;;;;;3.59;80.56;99616.22;5082652;28;20228;-80
2021/04/25 04:26:41;;;;;;;14.90;11.03;;;;;;;3.67;80.52;99624.09;5083520;28;20231;-81
2021/04/25 04:29:27;;;;;;;15.33;11.23;;;;;;;3.71;80.50;99615.63;5082791;28;20225;-81
2021/04/25 04:32:15;;;;;;;14.03;11.10;;;;;;;3.93;80.26;99621.94;5067339;28;20636;-81
2021/04/25 04:35:05;;;;;;;14.17;10.60;;;;;;;4.05;79.77;99615.22;5082073;28;20221;-81
2021/04/25 04:38:01;;;;;;;14.57;10.57;;;;;;;4.24;79.52;99619.22;5067679;28;20225;-81
2021/04/25 04:40:55;;;;;;;13.00;10.90;;;;;;;4.36;79.05;99613.28;5066783;28;20229;-81
2021/04/25 04:44:02;;;;;;;15.90;11.00;;;;;;;4.44;78.21;99613.19;5085570;28;20229;-81
2021/04/25 04:46:57;;;;;;;13.03;10.50;;;;;;;4.64;78.22;99620.63;5066896;28;20224;-81
2021/04/25 04:49:50;;;;;;;13.43;10.50;;;;;;;4.88;77.67;99617.72;5075781;28;20628;-81
2021/04/25 04:52:40;;;;;;;15.17;10.43;;;;;;;5.11;76.17;99625.59;5077767;28;20229;-81
2021/04/25 04:55:35;;;;;;;14.13;10.33;;;;;;;5.19;76.05;99609.53;5066279;28;20228;-81
2021/04/25 04:58:22;;;;;;;12.53;10.87;;;;;;;5.43;75.63;99621.69;5082103;28;20706;-81
2021/04/25 05:01:14;;;;;;;15.13;11.13;;;;;;;5.70;74.38;99626.28;5100030;28;20231;-81
2021/04/25 05:04:05;;;;;;;15.60;11.87;;;;;;;5.91;73.26;99620.19;5093676;28;20224;-81
2021/04/25 05:06:57;;;;;;;15.10;11.87;;;;;;;6.23;71.79;99632.97;5079515;28;20236;-81
2021/04/25 05:09:51;;;;;;;17.27;12.47;;;;;;;6.45;70.33;99609.81;5080152;28;20220;-81
2021/04/25 05:13:00;;;;;;;17.00;12.83;;;;;;;6.79;69.05;99638.31;5090721;28;20220;-80
2021/04/25 05:16:01;;;;;;;15.43;12.37;;;;;;;6.87;68.92;99636.31;5082466;28;20235;-81
2021/04/25 05:18:51;;;;;;;15.17;11.90;;;;;;;6.91;68.33;99637.56;5068686;28;20219;-81
2021/04/25 05:21:29;;;;;;;16.63;12.07;;;;;;;6.99;67.78;99642.75;5085374;28;20286;-82
2021/04/25 05:24:22;;;;;;;19.37;12.30;;;;;;;6.98;67.77;99629.63;5086845;28;20249;-81
2021/04/25 05:27:21;;;;;;;16.80;11.67;;;;;;;7.07;67.34;99636.44;5078419;28;20570;-81
2021/04/25 05:30:12;;;;;;;13.73;11.97;;;;;;;7.17;68.00;99639.56;5078319;28;20698;-81
2021/04/25 05:33:12;;;;;;;15.23;12.57;;;;;;;7.25;67.54;99639.41;5098624;28;20327;-82
2021/04/25 05:36:12;;;;;;;14.87;12.70;;;;;;;7.38;66.80;99649.28;5060754;28;20225;-81
2021/04/25 05:39:14;;;;;;;14.87;11.73;;;;;;;7.54;66.01;99638.31;5032575;28;20279;-82
2021/04/25 05:42:03;;;;;;;15.40;12.43;;;;;;;7.66;65.79;99638.53;5079773;28;20221;-82
2021/04/25 05:44:59;;;;;;;15.27;12.27;;;;;;;7.85;65.03;99643.94;5047543;28;20315;-82
2021/04/25 05:48:02;;;;;;;13.30;11.90;;;;;;;8.07;64.08;99636.56;5063782;28;20259;-82
2021/04/25 05:50:47;;;;;;;13.33;11.63;;;;;;;8.30;63.83;99646.91;5046302;28;20229;-80
2021/04/25 05:53:38;;;;;;;14.93;12.00;;;;;;;8.42;62.83;99631.91;5031290;28;20244;-82
2021/04/25 05:56:36;;;;;;;16.00;11.40;;;;;;;8.56;62.21;99633.56;5058497;28;20234;-81
2021/04/25 05:59:29;;;;;;;16.90;11.87;;;;;;;8.75;60.88;99642.59;5062995;28;20217;-82
2021/04/25 06:02:25;;;;;;;14.97;10.73;;;;;;;8.95;60.36;99643.38;5065751;28;20235;-81
2021/04/25 06:05:15;;;;;;;15.63;11.63;;;;;;;9.04;59.74;99634.09;5044767;28;20289;-82
2021/04/25 06:08:04;;;;;;;12.10;10.57;;;;;;;9.14;59.42;99629.16;5044822;28;20228;-81
2021/04/25 06:10:54;;;;;;;13.50;10.33;;;;;;;9.33;57.49;99635.47;5041300;28;20233;-82
2021/04/25 06:13:36;;;;;;;13.97;10.60;;;;;;;9.50;57.71;99639.28;5058769;28;20248;-81
2021/04/25 06:16:42;;;;;;;13.00;10.23;;;;;;;9.47;56.58;99623.66;5043872;28;20233;-82
2021/04/25 06:19:56;;;;;;;12.90;9.67;;;;;;;9.67;55.45;99636.94;5060625;28;20236;-82
2021/04/25 06:22:43;;;;;;;11.73;9.40;;;;;;;9.70;55.96;99637.34;5062883;28;20280;-81
2021/04/25 06:25:37;;;;;;;15.83;9.90;;;;;;;9.82;54.75;99628.63;5055908;28;20225;-82
2021/04/25 06:28:20;;;;;;;10.77;9.50;;;;;;;9.86;54.66;99622.63;5028809;28;20217;-82
2021/04/25 06:31:12;;;;;;;14.10;9.67;;;;;;;9.98;54.46;99631.66;5034892;28;20225;-82
2021/04/25 06:34:04;;;;;;;11.63;8.90;;;;;;;10.09;53.64;99628.25;5059053;28;20232;-81
2021/04/25 06:36:52;;;;;;;11.97;8.60;;;;;;;10.19;53.14;99635.03;5100307;28;20227;-81
2021/04/25 06:39:41;;;;;;;12.27;8.40;;;;;;;10.36;51.09;99623.56;5087678;28;20234;-81
2021/04/25 06:42:31;;;;;;;12.27;8.37;;;;;;;10.44;50.95;99622.47;5080447;28;20232;-81
2021/04/25 06:45:32;;;;;;;10.07;8.30;;;;;;;10.64;50.11;99620.44;5086716;28;20518;-81
2021/04/25 06:48:20;;;;;;;12.33;8.17;;;;;;;10.72;49.51;99624.72;5086918;28;20220;-81
2021/04/25 06:51:16;;;;;;;12.30;8.60;;;;;;;10.54;49.37;99626.28;5103310;28;20262;-82
2021/04/25 06:54:17;;;;;;;11.13;8.10;;;;;;;10.82;48.54;99628.53;5101940;28;20270;-82
2021/04/25 06:57:16;;;;;;;10.60;8.40;;;;;;;10.86;48.38;99619.00;5082110;28;20316;-82
2021/04/25 07:00:21;;;;;;;10.27;8.20;;;;;;;11.14;48.41;99634.59;5067684;28;20635;-82
2021/04/25 07:03:26;;;;;;;12.47;9.37;;;;;;;11.34;47.99;99628.97;5102248;28;20230;-81
2021/04/25 07:06:06;;;;;;;11.47;8.57;;;;;;;11.56;47.25;99637.41;5093844;28;20255;-81
2021/04/25 07:08:57;;;;;;;10.73;8.13;;;;;;;11.65;46.30;99636.88;5088498;28;20524;-81
2021/04/25 07:11:46;;;;;;;11.93;8.80;;;;;;;11.70;46.46;99638.88;5090672;28;20267;-82
2021/04/25 07:14:42;;;;;;;11.10;8.10;;;;;;;11.98;45.95;99644.50;5068217;28;20244;-82
2021/04/25 07:17:34;;;;;;;13.47;8.73;;;;;;;12.29;44.29;99641.56;5094796;28;20278;-82
2021/04/25 07:20:22;;;;;;;11.80;7.97;;;;;;;12.54;43.94;99640.56;5066761;28;20232;-82
2021/04/25 07:23:24;;;;;;;10.53;8.23;;;;;;;12.75;43.96;99659.59;5080040;28;20315;-81
2021/04/25 07:26:27;;;;;;;11.00;8.13;;;;;;;12.60;43.23;99645.78;5075844;28;20215;-82
2021/04/25 07:29:23;;;;;;;10.77;7.00;;;;;;;12.72;43.34;99641.25;5086336;28;20224;-82
2021/04/25 07:32:11;;;;;;;8.90;7.10;;;;;;;12.83;42.29;99653.06;5083539;28;20221;-81
2021/04/25 07:34:58;;;;;;;13.37;7.90;;;;;;;12.78;42.31;99644.91;5080269;28;20227;-82
2021/04/25 07:37:42;;;;;;;11.17;7.80;;;;;;;12.98;43.00;99645.34;5085371;28;20224;-82
2021/04/25 07:40:38;;;;;;;10.40;7.77;;;;;;;13.32;41.52;99649.09;5084553;28;20297;-82
2021/04/25 07:43:28;;;;;;;11.70;7.80;;;;;;;13.83;40.46;99650.13;5080754;28;20220;-82
2021/04/25 07:46:19;;;;;;;10.37;7.43;;;;;;;13.93;40.02;99650.31;5079209;28;20221;-81
2021/04/25 07:49:10;;;;;;;11.13;7.70;;;;;;;14.41;39.17;99653.38;5079144;28;20228;-81
2021/04/25 07:52:06;;;;;;;9.77;7.60;;;;;;;14.74;38.53;99651.75;5081568;28;20231;-81
2021/04/25 07:55:07;;;;;;;12.90;7.53;;;;;;;14.75;38.31;99645.28;5065153;28;20244;-81
2021/04/25 07:57:48;;;;;;;7.97;6.83;;;;;;;14.57;38.88;99645.53;5077121;28;20236;-79
2021/04/25 08:00:33;;;;;;;9.83;7.20;;;;;;;14.66;38.66;99655.66;5081060;28;20236;-78
2021/04/25 08:03:21;;;;;;;10.27;7.30;;;;;;;14.46;37.78;99648.06;5098645;28;20228;-79
2021/04/25 08:05:58;;;;;;;9.13;7.10;;;;;;;14.24;38.61;99644.41;5083807;28;20716;-79
2021/04/25 08:08:35;;;;;;;9.43;7.10;;;;;;;14.19;38.68;99656.97;5097664;28;20731;-79
2021/04/25 08:11:31;;;;;;;9.60;7.23;;;;;;;14.03;39.84;99653.19;5080732;28;20274;-78
2021/04/25 08:14:18;;;;;;;8.63;6.97;;;;;;;13.92;38.69;99671.03;5066040;28;20233;-79
2021/04/25 08:17:13;;;;;;;10.10;7.30;;;;;;;14.03;39.96;99672.88;5081207;28;20240;-79
2021/04/25 08:20:08;;;;;;;12.27;6.97;;;;;;;13.95;38.28;99659.78;5082103;28;20282;-79
2021/04/25 08:22:50;;;;;;;9.70;7.13;;;;;;;13.77;39.27;99657.28;5081856;28;20295;-79
2021/04/25 08:25:26;;;;;;;9.03;7.73;;;;;;;13.88;39.11;99661.81;5081818;28;20220;-80
2021/04/25 08:28:00;;;;;;;8.53;6.97;;;;;;;13.95;39.66;99664.38;5062042;28;20220;-79
2021/04/25 08:30:36;;;;;;;10.50;7.23;;;;;;;13.89;39.04;99671.53;5078143;28;20338;-79
2021/04/25 08:33:34;;;;;;;8.77;6.97;;;;;;;14.12;38.80;99667.91;5085415;28;20232;-79
2021/04/25 08:36:17;;;;;;;10.20;6.87;;;;;;;14.21;38.67;99658.38;5081154;28;20255;-82
2021/04/25 08:38:59;;;;;;;12.33;7.33;;;;;;;14.17;39.13;99662.63;5072743;28;20258;-81
2021/04/25 08:41:47;;;;;;;9.77;6.90;;;;;;;14.28;38.24;99690.56;5084866;28;20262;-79
2021/04/25 08:44:32;;;;;;;9.57;7.57;;;;;;;14.30;38.42;99669.56;5087071;28;20235;-79
2021/04/25 08:47:17;;;;;;;9.63;7.30;;;;;;;14.06;38.45;99664.31;5091693;28;20220;-79
2021/04/25 08:50:04;;;;;;;9.87;7.43;;;;;;;14.22;38.25;99662.72;5089312;28;20231;-79
2021/04/25 08:52:50;;;;;;;11.60;7.90;;;;;;;14.40;38.54;99648.22;5083924;28;20683;-77
2021/04/25 08:55:35;;;;;;;10.40;7.37;;;;;;;14.58;37.63;99668.75;5085224;28;20542;-78
2021/04/25 08:58:12;;;;;;;10.50;6.80;;;;;;;14.50;38.11;99664.59;5074002;28;20224;-79
2021/04/25 09:00:54;;;;;;;9.73;7.33;;;;;;;14.40;37.01;99657.13;5081156;28;20238;-78
2021/04/25 09:03:30;;;;;;;9.70;7.57;;;;;;;14.48;38.26;99658.59;5069962;28;20533;-78
2021/04/25 09:06:12;;;;;;;9.70;7.97;;;;;;;14.57;37.23;99676.00;5080636;28;20223;-79
2021/04/25 09:08:53;;;;;;;11.73;7.60;;;;;;;14.38;37.09;99667.34;5061605;28;20528;-78
2021/04/25 09:11:45;;;;;;;11.03;7.13;;;;;;;14.43;38.22;99678.19;5075808;28;20233;-80
2021/04/25 09:14:29;;;;;;;10.17;7.60;;;;;;;14.33;37.93;99659.13;5094136;28;20238;-79
2021/04/25 09:17:24;;;;;;;8.50;7.53;;;;;;;14.35;37.95;99667.78;5081321;28;20220;-79
2021/04/25 09:20:15;;;;;;;9.40;7.67;;;;;;;14.61;38.56;99668.25;5074392;28;20220;-79
2021/04/25 09:23:00;;;;;;;11.67;8.87;;;;;;;14.80;38.12;99662.34;5061015;28;20654;-78
2021/04/25 09:26:00;;;;;;;10.80;7.53;;;;;;;14.95;36.96;99665.31;5076671;28;20235;-78
2021/04/25 09:28:47;;;;;;;8.77;7.67;;;;;;;14.90;36.58;99669.78;5080422;28;20248;-78
2021/04/25 09:31:44;;;;;;;10.73;8.20;;;;;;;14.77;37.43;99662.88;5075180;28;20224;-78
2021/04/25 09:34:38;;;;;;;11.77;8.80;;;;;;;15.05;37.18;99666.50;5041169;28;20220;-79
2021/04/25 09:37:26;;;;;;;10.93;8.43;;;;;;;15.09;36.68;99662.25;5038383;28;20359;-78
2021/04/25 09:40:22;;;;;;;12.07;8.70;;;;;;;15.04;36.98;99651.38;5023979;28;20648;-78
2021/04/25 09:43:15;;;;;;;10.30;8.53;;;;;;;15.08;37.65;99653.34;5031318;28;20530;-78
2021/04/25 09:45:57;;;;;;;12.30;8.73;;;;;;;15.28;37.50;99640.13;5040215;28;20236;-77
2021/04/25 09:48:47;;;;;;;11.47;9.10;;;;;;;15.26;36.96;99652.22;5025952;28;20225;-78
2021/04/25 09:51:37;;;;;;;10.83;8.63;;;;;;;15.20;36.85;99647.84;5039785;28;20527;-79
2021/04/25 09:54:27;;;;;;;11.37;8.63;;;;;;;15.56;36.16;99649.97;5038289;28;20342;-78
2021/04/25 09:57:35;;;;;;;11.33;8.30;;;;;;;15.85;36.65;99645.19;5026710;28;20517;-78
2021/04/25 10:00:11;;;;;;;11.87;8.83;;;;;;;16.16;35.75;99651.72;5043778;28;20336;-78
2021/04/25 10:03:09;;;;;;;12.30;8.90;;;;;;;16.34;35.83;99655.94;5027525;28;20244;-78
2021/04/25 10:06:05;;;;;;;11.87;8.07;;;;;;;16.79;34.06;99650.13;5033639;28;20642;-80
2021/04/25 10:08:41;;;;;;;13.23;8.73;;;;;;;16.64;34.27;99648.94;5036596;28;20253;-83
2021/04/25 10:11:33;;;;;;;11.83;8.93;;;;;;;16.76;34.79;99646.03;5055426;28;20225;-81
2021/04/25 10:14:17;;;;;;;11.40;8.53;;;;;;;17.00;34.14;99641.06;5037089;28;20226;-83
2021/04/25 10:17:01;;;;;;;12.33;7.90;;;;;;;16.76;33.86;99631.69;5030183;28;20239;-77
2021/04/25 10:19:43;;;;;;;10.00;8.60;;;;;;;16.63;34.34;99631.06;5022298;28;20257;-78
2021/04/25 10:22:31;;;;;;;10.90;8.67;;;;;;;16.72;34.75;99637.63;5028793;28;20231;-78
2021/04/25 10:25:18;;;;;;;11.10;8.57;;;;;;;16.48;34.59;99627.41;5037635;28;20318;-78
2021/04/25 10:27:59;;;;;;;10.97;8.77;;;;;;;16.38;34.29;99620.00;5035037;28;20266;-77
2021/04/25 10:30:46;;;;;;;11.07;8.47;;;;;;;16.16;35.45;99630.09;5034293;28;20253;-78
2021/04/25 10:34:07;;;;;;;9.40;8.00;;;;;;;16.04;35.83;99627.56;5028103;28;20232;-78
2021/04/25 10:36:59;;;;;;;11.90;8.60;;;;;;;15.92;35.82;99618.75;5093770;28;20636;-79
2021/04/25 10:39:49;;;;;;;12.23;8.70;;;;;;;16.38;35.55;99619.22;5073771;28;20229;-79
2021/04/25 10:42:52;;;;;;;10.67;8.67;;;;;;;16.51;34.84;99618.78;5073996;28;20317;-78
2021/04/25 10:45:30;;;;;;;10.73;8.10;;;;;;;16.71;34.59;99605.41;5060508;28;20219;-80
2021/04/25 10:48:21;;;;;;;11.17;8.13;;;;;;;16.73;34.64;99606.81;5061937;28;20236;-78
2021/04/25 10:51:31;;;;;;;10.50;8.70;;;;;;;16.63;33.52;99605.91;5072246;28;20236;-78
2021/04/25 10:54:20;;;;;;;11.77;8.10;;;;;;;16.33;34.18;99611.06;5075729;28;20228;-78
2021/04/25 10:57:11;;;;;;;11.00;8.60;;;;;;;16.56;33.90;99600.69;5093377;28;20253;-79
2021/04/25 10:59:54;;;;;;;10.60;7.77;;;;;;;16.29;34.78;99605.34;5058802;28;20234;-79
2021/04/25 11:02:52;;;;;;;11.93;8.50;;;;;;;16.54;34.28;99600.16;5074668;28;20624;-79
2021/04/25 11:05:47;;;;;;;9.60;8.30;;;;;;;16.67;33.92;99605.13;5085948;28;20533;-79
2021/04/25 11:08:41;;;;;;;9.10;7.57;;;;;;;17.12;35.17;99604.59;5063712;28;20226;-78
2021/04/25 11:11:39;;;;;;;10.17;7.90;;;;;;;17.12;34.00;99590.28;5058573;28;20296;-79
2021/04/25 11:14:40;;;;;;;13.17;8.40;;;;;;;16.44;33.56;99589.25;5060785;28;20620;-78
2021/04/25 11:17:40;;;;;;;11.10;7.90;;;;;;;16.37;34.99;99594.06;5079417;28;20242;-80
2021/04/25 11:20:40;;;;;;;9.93;7.77;;;;;;;16.53;34.30;99601.22;5070963;28;20232;-80
2021/04/25 11:23:42;;;;;;;10.53;8.17;;;;;;;16.50;33.67;99588.22;5081563;28;20230;-79
2021/04/25 11:26:52;;;;;;;11.27;8.10;;;;;;;16.59;33.99;99605.63;5078695;28;20230;-80
2021/04/25 11:29:50;;;;;;;9.80;7.93;;;;;;;16.65;34.42;99611.91;5066509;28;20238;-78
2021/04/25 11:32:45;;;;;;;10.47;8.00;;;;;;;16.77;33.77;99598.16;5067710;28;20607;-80
2021/04/25 11:35:37;;;;;;;14.93;8.53;;;;;;;16.35;33.32;99585.38;5088264;28;20526;-80
2021/04/25 11:38:22;;;;;;;11.00;7.80;;;;;;;16.30;34.03;99588.88;5063600;28;20227;-79
2021/04/25 11:41:13;;;;;;;9.67;7.70;;;;;;;16.61;33.95;99595.34;5076085;28;20231;-79
2021/04/25 11:44:08;;;;;;;11.67;7.40;;;;;;;16.41;33.85;99610.59;5083000;28;20278;-79
2021/04/25 11:46:59;;;;;;;9.57;7.80;;;;;;;16.08;34.14;99593.53;5079187;28;20241;-79
2021/04/25 11:49:57;;;;;;;9.70;8.20;;;;;;;16.20;34.14;99613.09;5064215;28;20333;-78
2021/04/25 11:52:53;;;;;;;11.00;8.50;;;;;;;16.19;34.28;99597.94;5090416;28;20223;-79
2021/04/25 11:55:35;;;;;;;10.47;8.50;;;;;;;16.19;34.51;99600.66;5078183;28;20226;-79
2021/04/25 11:58:23;;;;;;;12.27;8.20;;;;;;;16.30;33.98;99593.44;5077816;28;20221;-78
2021/04/25 12:01:21;;;;;;;10.43;8.70;;;;;;;16.48;33.96;99603.88;5086998;28;20528;-79
2021/04/25 12:04:05;;;;;;;11.27;8.73;;;;;;;16.45;34.66;99604.41;5081846;28;20283;-79
2021/04/25 12:06:59;;;;;;;9.93;7.80;;;;;;;16.48;34.34;99590.34;5080229;28;20271;-79
2021/04/25 12:09:50;;;;;;;10.30;7.73;;;;;;;16.60;34.34;99604.56;5046822;28;20229;-80
2021/04/25 12:13:00;;;;;;;10.07;8.00;;;;;;;16.54;33.70;99599.31;5062172;28;20233;-79
2021/04/25 12:15:57;;;;;;;10.77;7.90;;;;;;;16.45;33.70;99609.00;5062068;28;20290;-78
2021/04/25 12:18:43;;;;;;;10.57;7.60;;;;;;;16.18;33.64;99612.56;5060067;28;20316;-78
2021/04/25 12:21:27;;;;;;;10.17;7.77;;;;;;;15.83;34.38;99588.69;5060667;28;20228;-77
2021/04/25 12:24:18;;;;;;;8.43;7.53;;;;;;;16.08;34.47;99606.22;5077907;28;20233;-78
2021/04/25 12:27:11;;;;;;;10.17;7.30;;;;;;;16.22;34.15;99586.63;5093322;28;20278;-79
2021/04/25 12:30:00;;;;;;;8.37;7.40;;;;;;;16.24;34.14;99586.38;5098386;28;20228;-78
2021/04/25 12:32:50;;;;;;;8.27;6.83;;;;;;;16.81;34.16;99588.44;5075906;28;20232;-80
2021/04/25 12:35:46;;;;;;;8.50;6.93;;;;;;;16.68;32.63;99597.84;5075500;28;20229;-80
2021/04/25 12:38:35;;;;;;;8.73;7.00;;;;;;;16.30;33.58;99594.28;5081364;28;20575;-79
2021/04/25 12:41:40;;;;;;;8.33;7.13;;;;;;;16.25;33.37;99585.28;5089515;28;20228;-78
2021/04/25 12:44:31;;;;;;;10.80;7.30;;;;;;;16.37;33.58;99588.66;5059568;28;20233;-77
2021/04/25 12:47:12;;;;;;;12.03;7.90;;;;;;;16.47;34.16;99579.81;5071179;28;20281;-78
2021/04/25 12:50:21;;;;;;;11.53;8.10;;;;;;;16.36;33.78;99586.19;5081271;28;20818;-78
2021/04/25 12:53:06;;;;;;;8.67;6.97;;;;;;;16.42;33.20;99590.59;5064318;28;20632;-78
2021/04/25 12:55:56;;;;;;;9.17;7.00;;;;;;;16.34;33.52;99585.63;5061105;28;20235;-78
2021/04/25 12:59:12;;;;;;;9.50;7.17;;;;;;;15.95;34.11;99585.03;5080175;28;20559;-78
2021/04/25 13:02:09;;;;;;;9.57;7.60;;;;;;;15.78;34.43;99594.03;5065957;28;20224;-77
2021/04/25 13:05:10;;;;;;;9.57;7.40;;;;;;;16.02;34.43;99589.16;5095723;28;20224;-77
2021/04/25 13:07:59;;;;;;;8.30;6.87;;;;;;;16.40;34.35;99581.91;5064017;28;20235;-78
2021/04/25 13:10:58;;;;;;;8.67;7.37;;;;;;;16.47;34.38;99583.31;5074082;28;20243;-78
2021/04/25 13:14:12;;;;;;;9.03;7.10;;;;;;;16.56;33.62;99591.78;5061140;28;20233;-77
2021/04/25 13:17:12;;;;;;;10.23;7.10;;;;;;;16.30;34.01;99579.94;5077576;28;20228;-78
2021/04/25 13:20:03;;;;;;;9.00;6.93;;;;;;;16.60;34.09;99582.91;5060287;28;20226;-78
2021/04/25 13:23:07;;;;;;;7.87;6.80;;;;;;;16.32;33.65;99577.81;5070534;28;20225;-78